sensor_id;sensor_type;location;lat;lon;timestamp;P1;durP1;ratioP1;P2;durP2;ratioP2
51080;SDS011;37130;55.670;37.596;2023-07-09T00:01:28;0.00;;;0.00;;
51080;SDS011;37130;55.670;37.596;2023-07-09T00:03:56;0.00;;;0.00;;
51080;SDS011;37130;55.670;37.596;2023-07-09T00:06:23;0.00;;;0.00;;
51080;SDS011;37130;55.670;37.596;2023-07-09T00:08:50;0.00;;;0.00;;
51080;SDS011;37130;55.670;37.596;2023-07-09T00:11:19;0.00;;;0.00;;
51080;SDS011;37130;55.670;37.596;2023-07-09T00:13:47;0.00;;;0.00;;
51080;SDS011;37130;55.670;37.596;2023-07-09T00:16:15;0.00;;;0.00;;
51080;SDS011;37130;55.670;37.596;2023-07-09T00:18:47;0.00;;;0.00;;
51080;SDS011;37130;55.670;37.596;2023-07-09T00:21:16;0.00;;;0.00;;
51080;SDS011;37130;55.670;37.596;2023-07-09T00:23:45;0.00;;;0.00;;
51080;SDS011;37130;55.670;37.596;2023-07-09T00:26:16;0.00;;;0.00;;
51080;SDS011;37130;55.670;37.596;2023-07-09T00:28:48;0.00;;;0.00;;
51080;SDS011;37130;55.670;37.596;2023-07-09T00:31:16;0.00;;;0.00;;
51080;SDS011;37130;55.670;37.596;2023-07-09T00:33:45;0.00;;;0.00;;
51080;SDS011;37130;55.670;37.596;2023-07-09T00:36:15;0.00;;;0.00;;
51080;SDS011;37130;55.670;37.596;2023-07-09T00:38:45;0.00;;;0.00;;
51080;SDS011;37130;55.670;37.596;2023-07-09T00:41:16;0.00;;;0.00;;
51080;SDS011;37130;55.670;37.596;2023-07-09T00:43:46;0.00;;;0.00;;
51080;SDS011;37130;55.670;37.596;2023-07-09T00:48:59;0.00;;;0.00;;
51080;SDS011;37130;55.670;37.596;2023-07-09T00:54:01;0.00;;;0.00;;
51080;SDS011;37130;55.670;37.596;2023-07-09T00:56:37;0.00;;;0.00;;
51080;SDS011;37130;55.670;37.596;2023-07-09T00:59:07;0.00;;;0.00;;
51080;SDS011;37130;55.670;37.596;2023-07-09T01:01:39;0.00;;;0.00;;
51080;SDS011;37130;55.670;37.596;2023-07-09T01:04:07;0.00;;;0.00;;
51080;SDS011;37130;55.670;37.596;2023-07-09T01:06:39;0.00;;;0.00;;
51080;SDS011;37130;55.670;37.596;2023-07-09T01:09:11;0.00;;;0.00;;
51080;SDS011;37130;55.670;37.596;2023-07-09T01:11:39;0.00;;;0.00;;
51080;SDS011;37130;55.670;37.596;2023-07-09T01:14:07;0.00;;;0.00;;
51080;SDS011;37130;55.670;37.596;2023-07-09T01:16:37;0.00;;;0.00;;
51080;SDS011;37130;55.670;37.596;2023-07-09T01:19:07;0.00;;;0.00;;
51080;SDS011;37130;55.670;37.596;2023-07-09T01:21:34;0.00;;;0.00;;
51080;SDS011;37130;55.670;37.596;2023-07-09T01:24:15;0.00;;;0.00;;
51080;SDS011;37130;55.670;37.596;2023-07-09T01:27:03;0.00;;;0.00;;
51080;SDS011;37130;55.670;37.596;2023-07-09T01:29:34;0.00;;;0.00;;
51080;SDS011;37130;55.670;37.596;2023-07-09T01:32:03;0.00;;;0.00;;
51080;SDS011;37130;55.670;37.596;2023-07-09T01:34:33;0.00;;;0.00;;
51080;SDS011;37130;55.670;37.596;2023-07-09T01:37:01;0.00;;;0.00;;
51080;SDS011;37130;55.670;37.596;2023-07-09T01:39:28;0.00;;;0.00;;
51080;SDS011;37130;55.670;37.596;2023-07-09T01:41:58;0.00;;;0.00;;
51080;SDS011;37130;55.670;37.596;2023-07-09T01:44:25;0.00;;;0.00;;
51080;SDS011;37130;55.670;37.596;2023-07-09T01:46:56;0.00;;;0.00;;
51080;SDS011;37130;55.670;37.596;2023-07-09T01:49:23;0.00;;;0.00;;
51080;SDS011;37130;55.670;37.596;2023-07-09T01:51:56;0.00;;;0.00;;
51080;SDS011;37130;55.670;37.596;2023-07-09T01:54:28;0.00;;;0.00;;
51080;SDS011;37130;55.670;37.596;2023-07-09T01:57:13;0.00;;;0.00;;
51080;SDS011;37130;55.670;37.596;2023-07-09T01:59:43;0.00;;;0.00;;
51080;SDS011;37130;55.670;37.596;2023-07-09T02:02:11;0.00;;;0.00;;
51080;SDS011;37130;55.670;37.596;2023-07-09T02:04:56;0.00;;;0.00;;
51080;SDS011;37130;55.670;37.596;2023-07-09T02:07:25;0.00;;;0.00;;
51080;SDS011;37130;55.670;37.596;2023-07-09T02:09:52;0.00;;;0.00;;
51080;SDS011;37130;55.670;37.596;2023-07-09T02:12:20;0.00;;;0.00;;
51080;SDS011;37130;55.670;37.596;2023-07-09T02:14:48;0.00;;;0.00;;
51080;SDS011;37130;55.670;37.596;2023-07-09T02:17:16;0.00;;;0.00;;
51080;SDS011;37130;55.670;37.596;2023-07-09T02:19:45;0.00;;;0.00;;
51080;SDS011;37130;55.670;37.596;2023-07-09T02:22:12;0.00;;;0.00;;
51080;SDS011;37130;55.670;37.596;2023-07-09T02:24:40;0.00;;;0.00;;
51080;SDS011;37130;55.670;37.596;2023-07-09T02:27:08;0.00;;;0.00;;
51080;SDS011;37130;55.670;37.596;2023-07-09T02:29:37;0.00;;;0.00;;
51080;SDS011;37130;55.670;37.596;2023-07-09T02:32:05;0.00;;;0.00;;
51080;SDS011;37130;55.670;37.596;2023-07-09T02:34:33;0.00;;;0.00;;
51080;SDS011;37130;55.670;37.596;2023-07-09T02:37:02;0.00;;;0.00;;
51080;SDS011;37130;55.670;37.596;2023-07-09T02:39:30;0.00;;;0.00;;
51080;SDS011;37130;55.670;37.596;2023-07-09T02:41:57;0.00;;;0.00;;
51080;SDS011;37130;55.670;37.596;2023-07-09T02:44:24;0.00;;;0.00;;
51080;SDS011;37130;55.670;37.596;2023-07-09T02:46:52;0.00;;;0.00;;
51080;SDS011;37130;55.670;37.596;2023-07-09T02:49:21;0.00;;;0.00;;
51080;SDS011;37130;55.670;37.596;2023-07-09T02:51:49;0.00;;;0.00;;
51080;SDS011;37130;55.670;37.596;2023-07-09T02:54:17;0.00;;;0.00;;
51080;SDS011;37130;55.670;37.596;2023-07-09T02:56:44;0.00;;;0.00;;
51080;SDS011;37130;55.670;37.596;2023-07-09T02:59:12;0.00;;;0.00;;
51080;SDS011;37130;55.670;37.596;2023-07-09T03:01:40;0.00;;;0.00;;
51080;SDS011;37130;55.670;37.596;2023-07-09T03:04:07;0.00;;;0.00;;
51080;SDS011;37130;55.670;37.596;2023-07-09T03:06:35;0.00;;;0.00;;
51080;SDS011;37130;55.670;37.596;2023-07-09T03:09:03;0.00;;;0.00;;
51080;SDS011;37130;55.670;37.596;2023-07-09T03:11:32;0.00;;;0.00;;
51080;SDS011;37130;55.670;37.596;2023-07-09T03:14:01;0.00;;;0.00;;
51080;SDS011;37130;55.670;37.596;2023-07-09T03:16:30;0.00;;;0.00;;
51080;SDS011;37130;55.670;37.596;2023-07-09T03:18:59;0.00;;;0.00;;
51080;SDS011;37130;55.670;37.596;2023-07-09T03:21:27;0.00;;;0.00;;
51080;SDS011;37130;55.670;37.596;2023-07-09T03:23:55;0.00;;;0.00;;
51080;SDS011;37130;55.670;37.596;2023-07-09T03:26:23;0.00;;;0.00;;
51080;SDS011;37130;55.670;37.596;2023-07-09T03:28:52;0.00;;;0.00;;
51080;SDS011;37130;55.670;37.596;2023-07-09T03:31:20;0.00;;;0.00;;
51080;SDS011;37130;55.670;37.596;2023-07-09T03:33:49;0.00;;;0.00;;
51080;SDS011;37130;55.670;37.596;2023-07-09T03:36:19;0.00;;;0.00;;
51080;SDS011;37130;55.670;37.596;2023-07-09T03:38:47;0.00;;;0.00;;
51080;SDS011;37130;55.670;37.596;2023-07-09T03:41:15;0.00;;;0.00;;
51080;SDS011;37130;55.670;37.596;2023-07-09T03:43:43;0.00;;;0.00;;
51080;SDS011;37130;55.670;37.596;2023-07-09T03:46:11;0.00;;;0.00;;
51080;SDS011;37130;55.670;37.596;2023-07-09T03:48:38;0.00;;;0.00;;
51080;SDS011;37130;55.670;37.596;2023-07-09T03:51:06;0.00;;;0.00;;
51080;SDS011;37130;55.670;37.596;2023-07-09T03:53:34;0.08;;;0.08;;
51080;SDS011;37130;55.670;37.596;2023-07-09T03:56:01;0.10;;;0.10;;
51080;SDS011;37130;55.670;37.596;2023-07-09T03:58:30;0.10;;;0.10;;
51080;SDS011;37130;55.670;37.596;2023-07-09T04:00:57;0.10;;;0.10;;
51080;SDS011;37130;55.670;37.596;2023-07-09T04:03:25;0.20;;;0.20;;
51080;SDS011;37130;55.670;37.596;2023-07-09T04:05:52;0.20;;;0.20;;
51080;SDS011;37130;55.670;37.596;2023-07-09T04:08:19;0.20;;;0.20;;
51080;SDS011;37130;55.670;37.596;2023-07-09T04:10:47;0.20;;;0.20;;
51080;SDS011;37130;55.670;37.596;2023-07-09T04:13:15;0.17;;;0.17;;
51080;SDS011;37130;55.670;37.596;2023-07-09T04:15:43;0.20;;;0.20;;
51080;SDS011;37130;55.670;37.596;2023-07-09T04:18:11;0.22;;;0.22;;
51080;SDS011;37130;55.670;37.596;2023-07-09T04:20:38;0.35;;;0.35;;
51080;SDS011;37130;55.670;37.596;2023-07-09T04:23:06;0.32;;;0.32;;
51080;SDS011;37130;55.670;37.596;2023-07-09T04:25:35;0.30;;;0.30;;
51080;SDS011;37130;55.670;37.596;2023-07-09T04:28:02;0.40;;;0.40;;
51080;SDS011;37130;55.670;37.596;2023-07-09T04:30:30;0.40;;;0.40;;
51080;SDS011;37130;55.670;37.596;2023-07-09T04:32:58;0.50;;;0.50;;
51080;SDS011;37130;55.670;37.596;2023-07-09T04:35:25;0.40;;;0.40;;
51080;SDS011;37130;55.670;37.596;2023-07-09T04:37:52;0.40;;;0.40;;
51080;SDS011;37130;55.670;37.596;2023-07-09T04:40:20;0.50;;;0.50;;
51080;SDS011;37130;55.670;37.596;2023-07-09T04:42:47;0.60;;;0.60;;
51080;SDS011;37130;55.670;37.596;2023-07-09T04:45:15;0.40;;;0.40;;
51080;SDS011;37130;55.670;37.596;2023-07-09T04:47:43;0.40;;;0.40;;
51080;SDS011;37130;55.670;37.596;2023-07-09T04:50:10;0.30;;;0.30;;
51080;SDS011;37130;55.670;37.596;2023-07-09T04:52:38;0.30;;;0.30;;
51080;SDS011;37130;55.670;37.596;2023-07-09T04:55:06;0.40;;;0.40;;
51080;SDS011;37130;55.670;37.596;2023-07-09T04:57:35;0.40;;;0.40;;
51080;SDS011;37130;55.670;37.596;2023-07-09T05:00:03;0.30;;;0.30;;
51080;SDS011;37130;55.670;37.596;2023-07-09T05:02:32;0.40;;;0.40;;
51080;SDS011;37130;55.670;37.596;2023-07-09T05:05:00;0.40;;;0.40;;
51080;SDS011;37130;55.670;37.596;2023-07-09T05:07:29;0.40;;;0.40;;
51080;SDS011;37130;55.670;37.596;2023-07-09T05:09:59;0.40;;;0.40;;
51080;SDS011;37130;55.670;37.596;2023-07-09T05:12:29;0.50;;;0.50;;
51080;SDS011;37130;55.670;37.596;2023-07-09T05:14:57;0.47;;;0.47;;
51080;SDS011;37130;55.670;37.596;2023-07-09T05:17:24;0.50;;;0.50;;
51080;SDS011;37130;55.670;37.596;2023-07-09T05:19:52;0.60;;;0.60;;
51080;SDS011;37130;55.670;37.596;2023-07-09T05:22:19;0.63;;;0.63;;
51080;SDS011;37130;55.670;37.596;2023-07-09T05:24:47;0.70;;;0.70;;
51080;SDS011;37130;55.670;37.596;2023-07-09T05:27:15;0.70;;;0.70;;
51080;SDS011;37130;55.670;37.596;2023-07-09T05:29:43;0.60;;;0.60;;
51080;SDS011;37130;55.670;37.596;2023-07-09T05:32:10;0.60;;;0.60;;
51080;SDS011;37130;55.670;37.596;2023-07-09T05:34:37;0.70;;;0.70;;
51080;SDS011;37130;55.670;37.596;2023-07-09T05:37:05;0.60;;;0.60;;
51080;SDS011;37130;55.670;37.596;2023-07-09T05:39:33;0.68;;;0.68;;
51080;SDS011;37130;55.670;37.596;2023-07-09T05:42:00;0.40;;;0.40;;
51080;SDS011;37130;55.670;37.596;2023-07-09T05:44:28;0.38;;;0.38;;
51080;SDS011;37130;55.670;37.596;2023-07-09T05:46:56;0.20;;;0.20;;
51080;SDS011;37130;55.670;37.596;2023-07-09T05:49:23;0.20;;;0.20;;
51080;SDS011;37130;55.670;37.596;2023-07-09T05:51:51;0.20;;;0.20;;
51080;SDS011;37130;55.670;37.596;2023-07-09T05:54:19;0.25;;;0.25;;
51080;SDS011;37130;55.670;37.596;2023-07-09T05:56:46;0.40;;;0.40;;
51080;SDS011;37130;55.670;37.596;2023-07-09T05:59:14;0.32;;;0.32;;
51080;SDS011;37130;55.670;37.596;2023-07-09T06:01:41;0.40;;;0.40;;
51080;SDS011;37130;55.670;37.596;2023-07-09T06:04:09;0.30;;;0.30;;
51080;SDS011;37130;55.670;37.596;2023-07-09T06:06:39;0.30;;;0.30;;
51080;SDS011;37130;55.670;37.596;2023-07-09T06:09:08;0.30;;;0.30;;
51080;SDS011;37130;55.670;37.596;2023-07-09T06:11:36;0.30;;;0.30;;
51080;SDS011;37130;55.670;37.596;2023-07-09T06:14:03;0.20;;;0.20;;
51080;SDS011;37130;55.670;37.596;2023-07-09T06:16:31;0.20;;;0.20;;
51080;SDS011;37130;55.670;37.596;2023-07-09T06:18:59;0.20;;;0.20;;
51080;SDS011;37130;55.670;37.596;2023-07-09T06:21:26;0.30;;;0.30;;
51080;SDS011;37130;55.670;37.596;2023-07-09T06:23:54;0.30;;;0.30;;
51080;SDS011;37130;55.670;37.596;2023-07-09T06:26:21;0.40;;;0.40;;
51080;SDS011;37130;55.670;37.596;2023-07-09T06:28:48;0.40;;;0.40;;
51080;SDS011;37130;55.670;37.596;2023-07-09T06:31:16;0.38;;;0.38;;
51080;SDS011;37130;55.670;37.596;2023-07-09T06:33:45;0.30;;;0.30;;
51080;SDS011;37130;55.670;37.596;2023-07-09T06:36:12;0.30;;;0.30;;
51080;SDS011;37130;55.670;37.596;2023-07-09T06:38:40;0.30;;;0.30;;
51080;SDS011;37130;55.670;37.596;2023-07-09T06:41:08;0.20;;;0.20;;
51080;SDS011;37130;55.670;37.596;2023-07-09T06:43:36;0.17;;;0.17;;
51080;SDS011;37130;55.670;37.596;2023-07-09T06:46:07;0.10;;;0.10;;
51080;SDS011;37130;55.670;37.596;2023-07-09T06:48:38;0.22;;;0.22;;
51080;SDS011;37130;55.670;37.596;2023-07-09T06:51:06;0.30;;;0.30;;
51080;SDS011;37130;55.670;37.596;2023-07-09T06:53:33;0.30;;;0.30;;
51080;SDS011;37130;55.670;37.596;2023-07-09T06:56:01;0.35;;;0.35;;
51080;SDS011;37130;55.670;37.596;2023-07-09T06:58:31;0.60;;;0.60;;
51080;SDS011;37130;55.670;37.596;2023-07-09T07:01:00;0.47;;;0.47;;
51080;SDS011;37130;55.670;37.596;2023-07-09T07:03:31;0.60;;;0.60;;
51080;SDS011;37130;55.670;37.596;2023-07-09T07:05:59;0.60;;;0.60;;
51080;SDS011;37130;55.670;37.596;2023-07-09T07:08:28;0.65;;;0.65;;
51080;SDS011;37130;55.670;37.596;2023-07-09T07:10:56;0.40;;;0.40;;
51080;SDS011;37130;55.670;37.596;2023-07-09T07:13:33;0.30;;;0.30;;
51080;SDS011;37130;55.670;37.596;2023-07-09T07:16:04;0.20;;;0.20;;
51080;SDS011;37130;55.670;37.596;2023-07-09T07:18:34;0.20;;;0.20;;
51080;SDS011;37130;55.670;37.596;2023-07-09T07:21:01;0.20;;;0.20;;
51080;SDS011;37130;55.670;37.596;2023-07-09T07:23:30;0.10;;;0.10;;
51080;SDS011;37130;55.670;37.596;2023-07-09T07:25:58;0.10;;;0.10;;
51080;SDS011;37130;55.670;37.596;2023-07-09T07:28:25;0.10;;;0.10;;
51080;SDS011;37130;55.670;37.596;2023-07-09T07:31:00;0.00;;;0.00;;
51080;SDS011;37130;55.670;37.596;2023-07-09T07:33:28;0.00;;;0.00;;
51080;SDS011;37130;55.670;37.596;2023-07-09T07:35:56;0.00;;;0.00;;
51080;SDS011;37130;55.670;37.596;2023-07-09T07:38:26;0.10;;;0.10;;
51080;SDS011;37130;55.670;37.596;2023-07-09T07:40:54;0.10;;;0.10;;
51080;SDS011;37130;55.670;37.596;2023-07-09T07:43:21;0.10;;;0.10;;
51080;SDS011;37130;55.670;37.596;2023-07-09T07:45:49;0.20;;;0.20;;
51080;SDS011;37130;55.670;37.596;2023-07-09T07:48:16;0.35;;;0.35;;
51080;SDS011;37130;55.670;37.596;2023-07-09T07:50:45;0.35;;;0.35;;
51080;SDS011;37130;55.670;37.596;2023-07-09T07:53:15;0.40;;;0.40;;
51080;SDS011;37130;55.670;37.596;2023-07-09T07:55:42;0.50;;;0.50;;
51080;SDS011;37130;55.670;37.596;2023-07-09T07:58:11;0.52;;;0.52;;
51080;SDS011;37130;55.670;37.596;2023-07-09T08:00:40;0.60;;;0.60;;
51080;SDS011;37130;55.670;37.596;2023-07-09T08:03:08;0.70;;;0.70;;
51080;SDS011;37130;55.670;37.596;2023-07-09T08:05:35;0.70;;;0.70;;
51080;SDS011;37130;55.670;37.596;2023-07-09T08:08:03;0.70;;;0.70;;
51080;SDS011;37130;55.670;37.596;2023-07-09T08:10:31;0.70;;;0.70;;
51080;SDS011;37130;55.670;37.596;2023-07-09T08:12:58;0.70;;;0.70;;
51080;SDS011;37130;55.670;37.596;2023-07-09T08:15:26;0.70;;;0.70;;
51080;SDS011;37130;55.670;37.596;2023-07-09T08:17:54;0.70;;;0.70;;
51080;SDS011;37130;55.670;37.596;2023-07-09T08:20:22;0.60;;;0.60;;
51080;SDS011;37130;55.670;37.596;2023-07-09T08:22:50;0.60;;;0.60;;
51080;SDS011;37130;55.670;37.596;2023-07-09T08:25:18;0.50;;;0.50;;
51080;SDS011;37130;55.670;37.596;2023-07-09T08:27:45;0.52;;;0.52;;
51080;SDS011;37130;55.670;37.596;2023-07-09T08:30:13;0.30;;;0.30;;
51080;SDS011;37130;55.670;37.596;2023-07-09T08:32:41;0.30;;;0.30;;
51080;SDS011;37130;55.670;37.596;2023-07-09T08:35:08;0.30;;;0.30;;
51080;SDS011;37130;55.670;37.596;2023-07-09T08:37:40;0.30;;;0.30;;
51080;SDS011;37130;55.670;37.596;2023-07-09T08:40:10;0.30;;;0.30;;
51080;SDS011;37130;55.670;37.596;2023-07-09T08:42:42;0.30;;;0.30;;
51080;SDS011;37130;55.670;37.596;2023-07-09T08:48:32;0.10;;;0.10;;
51080;SDS011;37130;55.670;37.596;2023-07-09T08:51:04;0.10;;;0.10;;
51080;SDS011;37130;55.670;37.596;2023-07-09T08:53:50;0.03;;;0.03;;
51080;SDS011;37130;55.670;37.596;2023-07-09T08:56:22;0.00;;;0.00;;
51080;SDS011;37130;55.670;37.596;2023-07-09T08:58:50;0.00;;;0.00;;
51080;SDS011;37130;55.670;37.596;2023-07-09T09:01:24;0.00;;;0.00;;
51080;SDS011;37130;55.670;37.596;2023-07-09T09:03:58;0.00;;;0.00;;
51080;SDS011;37130;55.670;37.596;2023-07-09T09:06:30;0.00;;;0.00;;
51080;SDS011;37130;55.670;37.596;2023-07-09T09:09:12;0.00;;;0.00;;
51080;SDS011;37130;55.670;37.596;2023-07-09T09:14:41;0.00;;;0.00;;
51080;SDS011;37130;55.670;37.596;2023-07-09T09:17:14;0.00;;;0.00;;
51080;SDS011;37130;55.670;37.596;2023-07-09T09:19:48;0.00;;;0.00;;
51080;SDS011;37130;55.670;37.596;2023-07-09T09:22:22;0.00;;;0.00;;
51080;SDS011;37130;55.670;37.596;2023-07-09T09:27:43;0.00;;;0.00;;
51080;SDS011;37130;55.670;37.596;2023-07-09T09:30:16;0.00;;;0.00;;
51080;SDS011;37130;55.670;37.596;2023-07-09T09:32:47;0.00;;;0.00;;
51080;SDS011;37130;55.670;37.596;2023-07-09T09:35:20;0.00;;;0.00;;
51080;SDS011;37130;55.670;37.596;2023-07-09T09:37:56;0.00;;;0.00;;
51080;SDS011;37130;55.670;37.596;2023-07-09T09:40:26;0.00;;;0.00;;
51080;SDS011;37130;55.670;37.596;2023-07-09T09:42:56;0.00;;;0.00;;
51080;SDS011;37130;55.670;37.596;2023-07-09T09:45:31;0.00;;;0.00;;
51080;SDS011;37130;55.670;37.596;2023-07-09T09:48:01;0.00;;;0.00;;
51080;SDS011;37130;55.670;37.596;2023-07-09T09:50:37;0.00;;;0.00;;
51080;SDS011;37130;55.670;37.596;2023-07-09T09:53:06;0.00;;;0.00;;
51080;SDS011;37130;55.670;37.596;2023-07-09T09:55:34;0.00;;;0.00;;
51080;SDS011;37130;55.670;37.596;2023-07-09T09:58:02;0.00;;;0.00;;
51080;SDS011;37130;55.670;37.596;2023-07-09T10:00:30;0.00;;;0.00;;
51080;SDS011;37130;55.670;37.596;2023-07-09T10:03:01;0.00;;;0.00;;
51080;SDS011;37130;55.670;37.596;2023-07-09T10:05:38;0.00;;;0.00;;
51080;SDS011;37130;55.670;37.596;2023-07-09T10:08:31;0.00;;;0.00;;
51080;SDS011;37130;55.670;37.596;2023-07-09T10:11:29;0.00;;;0.00;;
51080;SDS011;37130;55.670;37.596;2023-07-09T10:14:00;0.00;;;0.00;;
51080;SDS011;37130;55.670;37.596;2023-07-09T10:16:38;0.00;;;0.00;;
51080;SDS011;37130;55.670;37.596;2023-07-09T10:19:14;0.00;;;0.00;;
51080;SDS011;37130;55.670;37.596;2023-07-09T10:27:16;0.00;;;0.00;;
51080;SDS011;37130;55.670;37.596;2023-07-09T10:33:04;0.00;;;0.00;;
51080;SDS011;37130;55.670;37.596;2023-07-09T10:35:37;0.00;;;0.00;;
51080;SDS011;37130;55.670;37.596;2023-07-09T10:38:31;0.00;;;0.00;;
51080;SDS011;37130;55.670;37.596;2023-07-09T10:41:09;0.00;;;0.00;;
51080;SDS011;37130;55.670;37.596;2023-07-09T10:43:49;0.00;;;0.00;;
51080;SDS011;37130;55.670;37.596;2023-07-09T10:46:23;0.00;;;0.00;;
51080;SDS011;37130;55.670;37.596;2023-07-09T10:48:53;0.00;;;0.00;;
51080;SDS011;37130;55.670;37.596;2023-07-09T10:54:03;0.00;;;0.00;;
51080;SDS011;37130;55.670;37.596;2023-07-09T10:56:55;0.00;;;0.00;;
51080;SDS011;37130;55.670;37.596;2023-07-09T10:59:31;0.00;;;0.00;;
51080;SDS011;37130;55.670;37.596;2023-07-09T11:02:13;0.00;;;0.00;;
51080;SDS011;37130;55.670;37.596;2023-07-09T11:05:01;0.00;;;0.00;;
51080;SDS011;37130;55.670;37.596;2023-07-09T11:07:33;0.00;;;0.00;;
51080;SDS011;37130;55.670;37.596;2023-07-09T11:10:04;0.00;;;0.00;;
51080;SDS011;37130;55.670;37.596;2023-07-09T11:12:43;0.00;;;0.00;;
51080;SDS011;37130;55.670;37.596;2023-07-09T11:15:16;0.00;;;0.00;;
51080;SDS011;37130;55.670;37.596;2023-07-09T11:17:49;0.00;;;0.00;;
51080;SDS011;37130;55.670;37.596;2023-07-09T11:22:53;0.00;;;0.00;;
51080;SDS011;37130;55.670;37.596;2023-07-09T11:25:39;0.00;;;0.00;;
51080;SDS011;37130;55.670;37.596;2023-07-09T11:28:11;0.00;;;0.00;;
51080;SDS011;37130;55.670;37.596;2023-07-09T11:33:28;0.00;;;0.00;;
51080;SDS011;37130;55.670;37.596;2023-07-09T11:36:12;0.00;;;0.00;;
51080;SDS011;37130;55.670;37.596;2023-07-09T11:38:52;0.00;;;0.00;;
51080;SDS011;37130;55.670;37.596;2023-07-09T11:44:14;0.00;;;0.00;;
51080;SDS011;37130;55.670;37.596;2023-07-09T11:52:33;0.00;;;0.00;;
51080;SDS011;37130;55.670;37.596;2023-07-09T11:55:29;0.00;;;0.00;;
51080;SDS011;37130;55.670;37.596;2023-07-09T11:58:07;0.00;;;0.00;;
51080;SDS011;37130;55.670;37.596;2023-07-09T12:00:41;0.00;;;0.00;;
51080;SDS011;37130;55.670;37.596;2023-07-09T12:03:15;0.00;;;0.00;;
51080;SDS011;37130;55.670;37.596;2023-07-09T12:05:50;0.00;;;0.00;;
51080;SDS011;37130;55.670;37.596;2023-07-09T12:08:22;0.00;;;0.00;;
51080;SDS011;37130;55.670;37.596;2023-07-09T12:10:55;0.00;;;0.00;;
51080;SDS011;37130;55.670;37.596;2023-07-09T12:13:23;0.00;;;0.00;;
51080;SDS011;37130;55.670;37.596;2023-07-09T12:15:51;0.00;;;0.00;;
51080;SDS011;37130;55.670;37.596;2023-07-09T12:18:18;0.00;;;0.00;;
51080;SDS011;37130;55.670;37.596;2023-07-09T12:20:50;0.00;;;0.00;;
51080;SDS011;37130;55.670;37.596;2023-07-09T12:25:53;0.00;;;0.00;;
51080;SDS011;37130;55.670;37.596;2023-07-09T12:28:22;0.00;;;0.00;;
51080;SDS011;37130;55.670;37.596;2023-07-09T12:30:50;0.00;;;0.00;;
51080;SDS011;37130;55.670;37.596;2023-07-09T12:33:20;0.00;;;0.00;;
51080;SDS011;37130;55.670;37.596;2023-07-09T12:36:00;0.00;;;0.00;;
51080;SDS011;37130;55.670;37.596;2023-07-09T12:38:41;0.00;;;0.00;;
51080;SDS011;37130;55.670;37.596;2023-07-09T12:43:44;0.00;;;0.00;;
51080;SDS011;37130;55.670;37.596;2023-07-09T12:46:12;0.00;;;0.00;;
51080;SDS011;37130;55.670;37.596;2023-07-09T12:48:40;0.00;;;0.00;;
51080;SDS011;37130;55.670;37.596;2023-07-09T12:51:08;0.00;;;0.00;;
51080;SDS011;37130;55.670;37.596;2023-07-09T12:53:36;0.00;;;0.00;;
51080;SDS011;37130;55.670;37.596;2023-07-09T12:56:07;0.00;;;0.00;;
51080;SDS011;37130;55.670;37.596;2023-07-09T12:58:40;0.00;;;0.00;;
51080;SDS011;37130;55.670;37.596;2023-07-09T13:01:14;0.00;;;0.00;;
51080;SDS011;37130;55.670;37.596;2023-07-09T13:03:52;0.00;;;0.00;;
51080;SDS011;37130;55.670;37.596;2023-07-09T13:09:19;0.00;;;0.00;;
51080;SDS011;37130;55.670;37.596;2023-07-09T13:11:48;0.00;;;0.00;;
51080;SDS011;37130;55.670;37.596;2023-07-09T13:14:20;0.00;;;0.00;;
51080;SDS011;37130;55.670;37.596;2023-07-09T13:16:50;0.00;;;0.00;;
51080;SDS011;37130;55.670;37.596;2023-07-09T13:19:18;0.00;;;0.00;;
51080;SDS011;37130;55.670;37.596;2023-07-09T13:21:46;0.00;;;0.00;;
51080;SDS011;37130;55.670;37.596;2023-07-09T13:24:16;0.00;;;0.00;;
51080;SDS011;37130;55.670;37.596;2023-07-09T13:26:48;0.00;;;0.00;;
51080;SDS011;37130;55.670;37.596;2023-07-09T13:29:16;0.00;;;0.00;;
51080;SDS011;37130;55.670;37.596;2023-07-09T13:31:46;0.00;;;0.00;;
51080;SDS011;37130;55.670;37.596;2023-07-09T13:34:19;0.00;;;0.00;;
51080;SDS011;37130;55.670;37.596;2023-07-09T13:36:48;0.00;;;0.00;;
51080;SDS011;37130;55.670;37.596;2023-07-09T13:39:17;0.00;;;0.00;;
51080;SDS011;37130;55.670;37.596;2023-07-09T13:41:45;0.00;;;0.00;;
51080;SDS011;37130;55.670;37.596;2023-07-09T13:44:15;0.00;;;0.00;;
51080;SDS011;37130;55.670;37.596;2023-07-09T13:46:48;0.00;;;0.00;;
51080;SDS011;37130;55.670;37.596;2023-07-09T13:49:16;0.00;;;0.00;;
51080;SDS011;37130;55.670;37.596;2023-07-09T13:51:46;0.00;;;0.00;;
51080;SDS011;37130;55.670;37.596;2023-07-09T13:54:19;0.00;;;0.00;;
51080;SDS011;37130;55.670;37.596;2023-07-09T13:56:49;0.00;;;0.00;;
51080;SDS011;37130;55.670;37.596;2023-07-09T13:59:18;0.00;;;0.00;;
51080;SDS011;37130;55.670;37.596;2023-07-09T14:01:49;0.00;;;0.00;;
51080;SDS011;37130;55.670;37.596;2023-07-09T14:04:19;0.00;;;0.00;;
51080;SDS011;37130;55.670;37.596;2023-07-09T14:06:47;0.00;;;0.00;;
51080;SDS011;37130;55.670;37.596;2023-07-09T14:09:15;0.00;;;0.00;;
51080;SDS011;37130;55.670;37.596;2023-07-09T14:11:50;0.00;;;0.00;;
51080;SDS011;37130;55.670;37.596;2023-07-09T14:14:28;0.00;;;0.00;;
51080;SDS011;37130;55.670;37.596;2023-07-09T14:16:59;0.00;;;0.00;;
51080;SDS011;37130;55.670;37.596;2023-07-09T14:19:26;0.00;;;0.00;;
51080;SDS011;37130;55.670;37.596;2023-07-09T14:21:55;0.00;;;0.00;;
51080;SDS011;37130;55.670;37.596;2023-07-09T14:26:55;0.00;;;0.00;;
51080;SDS011;37130;55.670;37.596;2023-07-09T14:29:24;0.00;;;0.00;;
51080;SDS011;37130;55.670;37.596;2023-07-09T14:31:53;0.00;;;0.00;;
51080;SDS011;37130;55.670;37.596;2023-07-09T14:34:22;0.00;;;0.00;;
51080;SDS011;37130;55.670;37.596;2023-07-09T14:36:52;0.00;;;0.00;;
51080;SDS011;37130;55.670;37.596;2023-07-09T14:39:21;0.00;;;0.00;;
51080;SDS011;37130;55.670;37.596;2023-07-09T14:41:49;0.00;;;0.00;;
51080;SDS011;37130;55.670;37.596;2023-07-09T14:46:56;0.00;;;0.00;;
51080;SDS011;37130;55.670;37.596;2023-07-09T14:49:26;0.00;;;0.00;;
51080;SDS011;37130;55.670;37.596;2023-07-09T14:51:54;0.00;;;0.00;;
51080;SDS011;37130;55.670;37.596;2023-07-09T14:54:23;0.00;;;0.00;;
51080;SDS011;37130;55.670;37.596;2023-07-09T14:56:53;0.00;;;0.00;;
51080;SDS011;37130;55.670;37.596;2023-07-09T14:59:21;0.00;;;0.00;;
51080;SDS011;37130;55.670;37.596;2023-07-09T15:01:49;0.00;;;0.00;;
51080;SDS011;37130;55.670;37.596;2023-07-09T15:06:49;0.00;;;0.00;;
51080;SDS011;37130;55.670;37.596;2023-07-09T15:09:18;0.00;;;0.00;;
51080;SDS011;37130;55.670;37.596;2023-07-09T15:11:48;0.00;;;0.00;;
51080;SDS011;37130;55.670;37.596;2023-07-09T15:14:17;0.00;;;0.00;;
51080;SDS011;37130;55.670;37.596;2023-07-09T15:16:46;0.00;;;0.00;;
51080;SDS011;37130;55.670;37.596;2023-07-09T15:19:15;0.00;;;0.00;;
51080;SDS011;37130;55.670;37.596;2023-07-09T15:21:45;0.00;;;0.00;;
51080;SDS011;37130;55.670;37.596;2023-07-09T15:24:15;0.00;;;0.00;;
51080;SDS011;37130;55.670;37.596;2023-07-09T15:26:50;0.00;;;0.00;;
51080;SDS011;37130;55.670;37.596;2023-07-09T15:29:22;0.00;;;0.00;;
51080;SDS011;37130;55.670;37.596;2023-07-09T15:31:50;0.00;;;0.00;;
51080;SDS011;37130;55.670;37.596;2023-07-09T15:34:18;0.00;;;0.00;;
51080;SDS011;37130;55.670;37.596;2023-07-09T15:36:46;0.00;;;0.00;;
51080;SDS011;37130;55.670;37.596;2023-07-09T15:39:16;0.00;;;0.00;;
51080;SDS011;37130;55.670;37.596;2023-07-09T15:41:44;0.00;;;0.00;;
51080;SDS011;37130;55.670;37.596;2023-07-09T15:44:13;0.00;;;0.00;;
51080;SDS011;37130;55.670;37.596;2023-07-09T15:46:51;0.00;;;0.00;;